sensor_id;sensor_type;location;lat;lon;timestamp;temperature;humidity
8527;DHT22;4301;48.362;8.478;2022-09-27T00:01:24;8.20;99.90
8527;DHT22;4301;48.362;8.478;2022-09-27T00:03:52;8.20;99.90
8527;DHT22;4301;48.362;8.478;2022-09-27T00:06:24;8.20;99.90
8527;DHT22;4301;48.362;8.478;2022-09-27T00:08:52;8.20;99.90
8527;DHT22;4301;48.362;8.478;2022-09-27T00:11:24;8.20;99.90
8527;DHT22;4301;48.362;8.478;2022-09-27T00:13:52;8.20;99.90
8527;DHT22;4301;48.362;8.478;2022-09-27T00:16:21;8.20;99.90
8527;DHT22;4301;48.362;8.478;2022-09-27T00:18:49;8.20;99.90
8527;DHT22;4301;48.362;8.478;2022-09-27T00:21:16;8.20;99.90
8527;DHT22;4301;48.362;8.478;2022-09-27T00:23:44;8.20;99.90
8527;DHT22;4301;48.362;8.478;2022-09-27T00:26:12;8.20;99.90
8527;DHT22;4301;48.362;8.478;2022-09-27T00:28:40;8.20;99.90
8527;DHT22;4301;48.362;8.478;2022-09-27T00:31:16;8.20;99.90
8527;DHT22;4301;48.362;8.478;2022-09-27T00:33:47;8.20;99.90
8527;DHT22;4301;48.362;8.478;2022-09-27T00:36:15;8.20;99.90
8527;DHT22;4301;48.362;8.478;2022-09-27T00:38:42;8.20;99.90
8527;DHT22;4301;48.362;8.478;2022-09-27T00:41:12;8.20;99.90
8527;DHT22;4301;48.362;8.478;2022-09-27T00:43:47;8.20;99.90
8527;DHT22;4301;48.362;8.478;2022-09-27T00:46:20;8.40;99.90
8527;DHT22;4301;48.362;8.478;2022-09-27T00:48:58;8.20;99.90
8527;DHT22;4301;48.362;8.478;2022-09-27T00:51:28;8.20;99.90
8527;DHT22;4301;48.362;8.478;2022-09-27T00:53:57;8.30;99.90
8527;DHT22;4301;48.362;8.478;2022-09-27T00:56:28;8.30;99.90
8527;DHT22;4301;48.362;8.478;2022-09-27T00:58:57;8.30;99.90
8527;DHT22;4301;48.362;8.478;2022-09-27T01:01:25;8.30;99.90
8527;DHT22;4301;48.362;8.478;2022-09-27T01:04:00;8.30;99.90
8527;DHT22;4301;48.362;8.478;2022-09-27T01:06:30;8.30;99.90
8527;DHT22;4301;48.362;8.478;2022-09-27T01:08:57;8.30;99.90
8527;DHT22;4301;48.362;8.478;2022-09-27T01:11:34;8.30;99.90
8527;DHT22;4301;48.362;8.478;2022-09-27T01:14:23;8.30;99.90
8527;DHT22;4301;48.362;8.478;2022-09-27T01:16:59;8.30;99.90
8527;DHT22;4301;48.362;8.478;2022-09-27T01:19:52;8.40;99.90
8527;DHT22;4301;48.362;8.478;2022-09-27T01:22:31;8.40;99.90
8527;DHT22;4301;48.362;8.478;2022-09-27T01:25:14;8.40;99.90
8527;DHT22;4301;48.362;8.478;2022-09-27T01:28:23;8.40;99.90
8527;DHT22;4301;48.362;8.478;2022-09-27T01:31:02;8.40;99.90
8527;DHT22;4301;48.362;8.478;2022-09-27T01:33:41;8.30;99.90
8527;DHT22;4301;48.362;8.478;2022-09-27T01:36:24;8.40;99.90
8527;DHT22;4301;48.362;8.478;2022-09-27T01:39:02;8.40;99.90
8527;DHT22;4301;48.362;8.478;2022-09-27T01:41:35;8.40;99.90
8527;DHT22;4301;48.362;8.478;2022-09-27T01:44:12;8.40;99.90
8527;DHT22;4301;48.362;8.478;2022-09-27T01:46:44;8.40;99.90
8527;DHT22;4301;48.362;8.478;2022-09-27T01:49:15;8.40;99.90
8527;DHT22;4301;48.362;8.478;2022-09-27T01:51:46;8.30;99.90
8527;DHT22;4301;48.362;8.478;2022-09-27T01:54:18;8.30;99.90
8527;DHT22;4301;48.362;8.478;2022-09-27T01:56:49;8.40;99.90
8527;DHT22;4301;48.362;8.478;2022-09-27T01:59:19;8.40;99.90
8527;DHT22;4301;48.362;8.478;2022-09-27T02:01:51;8.30;99.90
8527;DHT22;4301;48.362;8.478;2022-09-27T02:04:23;8.30;99.90
8527;DHT22;4301;48.362;8.478;2022-09-27T02:06:57;8.30;99.90
8527;DHT22;4301;48.362;8.478;2022-09-27T02:09:28;8.30;99.90
8527;DHT22;4301;48.362;8.478;2022-09-27T02:12:01;8.20;99.90
8527;DHT22;4301;48.362;8.478;2022-09-27T02:14:34;8.20;99.90
8527;DHT22;4301;48.362;8.478;2022-09-27T02:17:10;8.20;99.90
8527;DHT22;4301;48.362;8.478;2022-09-27T02:19:46;8.10;99.90
8527;DHT22;4301;48.362;8.478;2022-09-27T02:22:22;8.10;99.90
8527;DHT22;4301;48.362;8.478;2022-09-27T02:24:57;8.10;99.90
8527;DHT22;4301;48.362;8.478;2022-09-27T02:27:27;8.10;99.90
8527;DHT22;4301;48.362;8.478;2022-09-27T02:29:59;8.10;99.90
8527;DHT22;4301;48.362;8.478;2022-09-27T02:32:28;8.10;99.90
8527;DHT22;4301;48.362;8.478;2022-09-27T02:34:59;8.00;99.90
8527;DHT22;4301;48.362;8.478;2022-09-27T02:37:28;7.90;99.90
8527;DHT22;4301;48.362;8.478;2022-09-27T02:39:56;7.90;99.90
8527;DHT22;4301;48.362;8.478;2022-09-27T02:42:24;7.60;99.90
8527;DHT22;4301;48.362;8.478;2022-09-27T02:44:52;7.80;99.90
8527;DHT22;4301;48.362;8.478;2022-09-27T02:47:32;7.80;99.90
8527;DHT22;4301;48.362;8.478;2022-09-27T02:50:17;7.80;99.90
8527;DHT22;4301;48.362;8.478;2022-09-27T02:52:57;7.70;99.90
8527;DHT22;4301;48.362;8.478;2022-09-27T02:55:35;7.70;99.90
8527;DHT22;4301;48.362;8.478;2022-09-27T02:58:14;7.70;99.90
8527;DHT22;4301;48.362;8.478;2022-09-27T03:00:53;7.70;99.90
8527;DHT22;4301;48.362;8.478;2022-09-27T03:03:27;7.70;99.90
8527;DHT22;4301;48.362;8.478;2022-09-27T03:06:02;7.70;99.90
8527;DHT22;4301;48.362;8.478;2022-09-27T03:08:30;7.60;99.90
8527;DHT22;4301;48.362;8.478;2022-09-27T03:10:58;7.60;99.90
8527;DHT22;4301;48.362;8.478;2022-09-27T03:13:25;7.60;99.90
8527;DHT22;4301;48.362;8.478;2022-09-27T03:15:53;7.60;99.90
8527;DHT22;4301;48.362;8.478;2022-09-27T03:18:20;7.60;99.90
8527;DHT22;4301;48.362;8.478;2022-09-27T03:20:51;7.60;99.90
8527;DHT22;4301;48.362;8.478;2022-09-27T03:23:18;7.60;99.90
8527;DHT22;4301;48.362;8.478;2022-09-27T03:25:46;7.60;99.90
8527;DHT22;4301;48.362;8.478;2022-09-27T03:28:13;7.60;99.90
8527;DHT22;4301;48.362;8.478;2022-09-27T03:30:41;7.60;99.90
8527;DHT22;4301;48.362;8.478;2022-09-27T03:33:08;7.60;99.90
8527;DHT22;4301;48.362;8.478;2022-09-27T03:35:36;7.60;99.90
8527;DHT22;4301;48.362;8.478;2022-09-27T03:38:04;7.70;99.90
8527;DHT22;4301;48.362;8.478;2022-09-27T03:40:32;7.60;99.90
8527;DHT22;4301;48.362;8.478;2022-09-27T03:43:00;7.50;99.90
8527;DHT22;4301;48.362;8.478;2022-09-27T03:45:27;7.50;99.90
8527;DHT22;4301;48.362;8.478;2022-09-27T03:47:54;7.60;99.90
8527;DHT22;4301;48.362;8.478;2022-09-27T03:50:22;7.50;99.90
8527;DHT22;4301;48.362;8.478;2022-09-27T03:52:50;7.60;99.90
8527;DHT22;4301;48.362;8.478;2022-09-27T03:55:20;7.50;99.90
8527;DHT22;4301;48.362;8.478;2022-09-27T03:57:47;7.60;99.90
8527;DHT22;4301;48.362;8.478;2022-09-27T04:00:15;7.60;99.90
8527;DHT22;4301;48.362;8.478;2022-09-27T04:02:43;7.60;99.90
8527;DHT22;4301;48.362;8.478;2022-09-27T04:05:10;7.60;99.90
8527;DHT22;4301;48.362;8.478;2022-09-27T04:07:37;7.70;99.90
8527;DHT22;4301;48.362;8.478;2022-09-27T04:10:05;7.50;99.90
8527;DHT22;4301;48.362;8.478;2022-09-27T04:12:34;7.50;99.90
8527;DHT22;4301;48.362;8.478;2022-09-27T04:15:02;7.50;99.90
8527;DHT22;4301;48.362;8.478;2022-09-27T04:17:29;7.40;99.90
8527;DHT22;4301;48.362;8.478;2022-09-27T04:19:56;7.40;99.90
8527;DHT22;4301;48.362;8.478;2022-09-27T04:22:24;7.30;99.90
8527;DHT22;4301;48.362;8.478;2022-09-27T04:24:51;7.30;99.90
8527;DHT22;4301;48.362;8.478;2022-09-27T04:27:18;7.30;99.90
8527;DHT22;4301;48.362;8.478;2022-09-27T04:29:48;7.20;99.90
8527;DHT22;4301;48.362;8.478;2022-09-27T04:32:15;7.20;99.90
8527;DHT22;4301;48.362;8.478;2022-09-27T04:34:42;7.20;99.90
8527;DHT22;4301;48.362;8.478;2022-09-27T04:37:27;7.20;99.90
8527;DHT22;4301;48.362;8.478;2022-09-27T04:39:54;7.20;99.90
8527;DHT22;4301;48.362;8.478;2022-09-27T04:42:21;7.10;99.90
8527;DHT22;4301;48.362;8.478;2022-09-27T04:44:50;7.10;99.90
8527;DHT22;4301;48.362;8.478;2022-09-27T04:47:18;7.10;99.90
8527;DHT22;4301;48.362;8.478;2022-09-27T04:49:46;7.00;99.90
8527;DHT22;4301;48.362;8.478;2022-09-27T04:52:14;7.00;99.90
8527;DHT22;4301;48.362;8.478;2022-09-27T04:54:41;6.90;99.90
8527;DHT22;4301;48.362;8.478;2022-09-27T04:57:09;6.90;99.90
8527;DHT22;4301;48.362;8.478;2022-09-27T04:59:36;6.90;99.90
8527;DHT22;4301;48.362;8.478;2022-09-27T05:02:06;6.90;99.90
8527;DHT22;4301;48.362;8.478;2022-09-27T05:04:34;6.90;99.90
8527;DHT22;4301;48.362;8.478;2022-09-27T05:07:01;6.90;99.90
8527;DHT22;4301;48.362;8.478;2022-09-27T05:09:29;6.90;99.90
8527;DHT22;4301;48.362;8.478;2022-09-27T05:11:57;6.90;99.90
8527;DHT22;4301;48.362;8.478;2022-09-27T05:14:24;6.90;99.90
8527;DHT22;4301;48.362;8.478;2022-09-27T05:16:52;6.90;99.90
8527;DHT22;4301;48.362;8.478;2022-09-27T05:19:21;6.90;99.90
8527;DHT22;4301;48.362;8.478;2022-09-27T05:21:48;6.90;99.90
8527;DHT22;4301;48.362;8.478;2022-09-27T05:24:16;6.90;99.90
8527;DHT22;4301;48.362;8.478;2022-09-27T05:26:43;6.80;99.90
8527;DHT22;4301;48.362;8.478;2022-09-27T05:29:11;6.80;99.90
8527;DHT22;4301;48.362;8.478;2022-09-27T05:31:39;6.90;99.90
8527;DHT22;4301;48.362;8.478;2022-09-27T05:34:07;6.80;99.90
8527;DHT22;4301;48.362;8.478;2022-09-27T05:36:37;6.80;99.90
8527;DHT22;4301;48.362;8.478;2022-09-27T05:39:04;6.90;99.90
8527;DHT22;4301;48.362;8.478;2022-09-27T05:41:32;6.80;99.90
8527;DHT22;4301;48.362;8.478;2022-09-27T05:43:59;6.80;99.90
8527;DHT22;4301;48.362;8.478;2022-09-27T05:46:26;6.90;99.90
8527;DHT22;4301;48.362;8.478;2022-09-27T05:48:53;6.90;99.90
8527;DHT22;4301;48.362;8.478;2022-09-27T05:51:21;6.80;99.90
8527;DHT22;4301;48.362;8.478;2022-09-27T05:53:49;6.80;99.90
8527;DHT22;4301;48.362;8.478;2022-09-27T05:56:17;6.70;99.90
8527;DHT22;4301;48.362;8.478;2022-09-27T05:58:44;6.70;99.90
8527;DHT22;4301;48.362;8.478;2022-09-27T06:01:12;6.70;99.90
8527;DHT22;4301;48.362;8.478;2022-09-27T06:03:40;6.70;99.90
8527;DHT22;4301;48.362;8.478;2022-09-27T06:06:08;6.60;99.90
8527;DHT22;4301;48.362;8.478;2022-09-27T06:08:37;6.70;99.90
8527;DHT22;4301;48.362;8.478;2022-09-27T06:11:07;6.70;99.90
8527;DHT22;4301;48.362;8.478;2022-09-27T06:13:37;6.70;99.90
8527;DHT22;4301;48.362;8.478;2022-09-27T06:16:06;6.80;99.90
8527;DHT22;4301;48.362;8.478;2022-09-27T06:18:33;6.90;99.90
8527;DHT22;4301;48.362;8.478;2022-09-27T06:21:02;6.80;99.90
8527;DHT22;4301;48.362;8.478;2022-09-27T06:23:30;6.90;99.90
8527;DHT22;4301;48.362;8.478;2022-09-27T06:26:01;6.90;99.90
8527;DHT22;4301;48.362;8.478;2022-09-27T06:28:31;6.90;99.90
8527;DHT22;4301;48.362;8.478;2022-09-27T06:30:59;7.00;99.90
8527;DHT22;4301;48.362;8.478;2022-09-27T06:33:27;7.00;99.90
8527;DHT22;4301;48.362;8.478;2022-09-27T06:35:54;7.10;99.90
8527;DHT22;4301;48.362;8.478;2022-09-27T06:38:22;7.20;99.90
8527;DHT22;4301;48.362;8.478;2022-09-27T06:40:50;7.30;99.90
8527;DHT22;4301;48.362;8.478;2022-09-27T06:43:19;7.30;99.90
8527;DHT22;4301;48.362;8.478;2022-09-27T06:45:48;7.40;99.90
8527;DHT22;4301;48.362;8.478;2022-09-27T06:48:16;7.50;99.90
8527;DHT22;4301;48.362;8.478;2022-09-27T06:50:44;7.50;99.90
8527;DHT22;4301;48.362;8.478;2022-09-27T06:53:14;7.80;99.90
8527;DHT22;4301;48.362;8.478;2022-09-27T06:55:41;8.10;99.90
8527;DHT22;4301;48.362;8.478;2022-09-27T06:58:10;8.40;99.90
8527;DHT22;4301;48.362;8.478;2022-09-27T07:00:56;8.40;99.90
8527;DHT22;4301;48.362;8.478;2022-09-27T07:03:24;8.30;99.90
8527;DHT22;4301;48.362;8.478;2022-09-27T07:05:56;8.20;99.90
8527;DHT22;4301;48.362;8.478;2022-09-27T07:08:24;8.00;99.90
8527;DHT22;4301;48.362;8.478;2022-09-27T07:10:54;8.00;99.90
8527;DHT22;4301;48.362;8.478;2022-09-27T07:13:22;7.90;99.90
8527;DHT22;4301;48.362;8.478;2022-09-27T07:15:49;7.90;99.90
8527;DHT22;4301;48.362;8.478;2022-09-27T07:18:18;7.80;99.90
8527;DHT22;4301;48.362;8.478;2022-09-27T07:20:45;7.70;99.90
8527;DHT22;4301;48.362;8.478;2022-09-27T07:23:13;7.70;99.90
8527;DHT22;4301;48.362;8.478;2022-09-27T07:25:41;7.50;99.90
8527;DHT22;4301;48.362;8.478;2022-09-27T07:28:13;7.50;99.90
8527;DHT22;4301;48.362;8.478;2022-09-27T07:30:40;7.50;99.90
8527;DHT22;4301;48.362;8.478;2022-09-27T07:33:08;7.50;99.90
8527;DHT22;4301;48.362;8.478;2022-09-27T07:35:38;7.60;99.90
8527;DHT22;4301;48.362;8.478;2022-09-27T07:38:07;7.60;99.90
8527;DHT22;4301;48.362;8.478;2022-09-27T07:40:36;7.60;99.90
8527;DHT22;4301;48.362;8.478;2022-09-27T07:43:04;7.60;99.90
8527;DHT22;4301;48.362;8.478;2022-09-27T07:45:32;7.70;99.90
8527;DHT22;4301;48.362;8.478;2022-09-27T07:48:02;7.70;99.90
8527;DHT22;4301;48.362;8.478;2022-09-27T07:50:30;7.70;99.90
8527;DHT22;4301;48.362;8.478;2022-09-27T07:52:59;7.80;99.90
8527;DHT22;4301;48.362;8.478;2022-09-27T07:55:26;8.10;99.90
8527;DHT22;4301;48.362;8.478;2022-09-27T07:58:01;8.50;99.90
8527;DHT22;4301;48.362;8.478;2022-09-27T08:00:29;9.10;99.90
8527;DHT22;4301;48.362;8.478;2022-09-27T08:02:56;9.60;99.90
8527;DHT22;4301;48.362;8.478;2022-09-27T08:05:23;10.10;99.90
8527;DHT22;4301;48.362;8.478;2022-09-27T08:07:53;9.80;99.90
8527;DHT22;4301;48.362;8.478;2022-09-27T08:10:23;9.50;99.90
8527;DHT22;4301;48.362;8.478;2022-09-27T08:12:52;9.20;99.90
8527;DHT22;4301;48.362;8.478;2022-09-27T08:15:19;8.70;99.90
8527;DHT22;4301;48.362;8.478;2022-09-27T08:17:46;8.50;99.90
8527;DHT22;4301;48.362;8.478;2022-09-27T08:20:13;8.30;99.90
8527;DHT22;4301;48.362;8.478;2022-09-27T08:22:41;8.10;99.90
8527;DHT22;4301;48.362;8.478;2022-09-27T08:25:10;8.10;99.90
8527;DHT22;4301;48.362;8.478;2022-09-27T08:27:40;8.10;99.90
8527;DHT22;4301;48.362;8.478;2022-09-27T08:30:08;8.20;99.90
8527;DHT22;4301;48.362;8.478;2022-09-27T08:32:36;8.80;99.90
8527;DHT22;4301;48.362;8.478;2022-09-27T08:35:04;9.90;99.90
8527;DHT22;4301;48.362;8.478;2022-09-27T08:37:33;9.80;99.90
8527;DHT22;4301;48.362;8.478;2022-09-27T08:40:01;9.60;99.90
8527;DHT22;4301;48.362;8.478;2022-09-27T08:42:34;9.40;99.90
8527;DHT22;4301;48.362;8.478;2022-09-27T08:45:12;9.10;99.90
8527;DHT22;4301;48.362;8.478;2022-09-27T08:47:44;9.10;99.90
8527;DHT22;4301;48.362;8.478;2022-09-27T08:50:22;8.80;99.90
8527;DHT22;4301;48.362;8.478;2022-09-27T08:52:54;8.70;99.90
8527;DHT22;4301;48.362;8.478;2022-09-27T08:55:29;8.70;99.90
8527;DHT22;4301;48.362;8.478;2022-09-27T08:57:58;8.60;99.90
8527;DHT22;4301;48.362;8.478;2022-09-27T09:00:28;8.50;99.90
8527;DHT22;4301;48.362;8.478;2022-09-27T09:02:57;8.40;99.90
8527;DHT22;4301;48.362;8.478;2022-09-27T09:05:29;8.40;99.90
8527;DHT22;4301;48.362;8.478;2022-09-27T09:08:10;8.30;99.90
8527;DHT22;4301;48.362;8.478;2022-09-27T09:10:49;8.30;99.90
8527;DHT22;4301;48.362;8.478;2022-09-27T09:14:03;8.20;99.90
8527;DHT22;4301;48.362;8.478;2022-09-27T09:16:44;8.30;99.90
8527;DHT22;4301;48.362;8.478;2022-09-27T09:19:27;8.20;99.90
8527;DHT22;4301;48.362;8.478;2022-09-27T09:22:05;8.20;99.90
8527;DHT22;4301;48.362;8.478;2022-09-27T09:24:50;8.30;99.90
8527;DHT22;4301;48.362;8.478;2022-09-27T09:27:27;8.40;99.90
8527;DHT22;4301;48.362;8.478;2022-09-27T09:30:03;8.30;99.90
8527;DHT22;4301;48.362;8.478;2022-09-27T09:32:42;8.50;99.90
8527;DHT22;4301;48.362;8.478;2022-09-27T09:35:16;8.70;99.90
8527;DHT22;4301;48.362;8.478;2022-09-27T09:37:48;9.00;99.90
8527;DHT22;4301;48.362;8.478;2022-09-27T09:40:20;9.10;99.90
8527;DHT22;4301;48.362;8.478;2022-09-27T09:42:54;9.20;99.90
8527;DHT22;4301;48.362;8.478;2022-09-27T09:45:26;9.10;99.90
8527;DHT22;4301;48.362;8.478;2022-09-27T09:48:01;9.50;99.90
8527;DHT22;4301;48.362;8.478;2022-09-27T09:50:38;10.10;99.90
8527;DHT22;4301;48.362;8.478;2022-09-27T09:53:13;10.40;99.90
8527;DHT22;4301;48.362;8.478;2022-09-27T09:55:45;11.70;99.90
8527;DHT22;4301;48.362;8.478;2022-09-27T09:58:20;11.00;99.90
8527;DHT22;4301;48.362;8.478;2022-09-27T10:00:51;10.80;99.90
8527;DHT22;4301;48.362;8.478;2022-09-27T10:03:21;10.50;99.90
8527;DHT22;4301;48.362;8.478;2022-09-27T10:05:49;10.40;99.90
8527;DHT22;4301;48.362;8.478;2022-09-27T10:08:18;10.20;99.90
8527;DHT22;4301;48.362;8.478;2022-09-27T10:10:46;9.90;99.90
8527;DHT22;4301;48.362;8.478;2022-09-27T10:13:16;9.70;99.90
8527;DHT22;4301;48.362;8.478;2022-09-27T10:15:48;9.70;99.90
8527;DHT22;4301;48.362;8.478;2022-09-27T10:18:19;9.70;99.90
8527;DHT22;4301;48.362;8.478;2022-09-27T10:20:49;9.50;99.90
8527;DHT22;4301;48.362;8.478;2022-09-27T10:23:20;9.50;99.90
8527;DHT22;4301;48.362;8.478;2022-09-27T10:25:50;9.40;99.90
8527;DHT22;4301;48.362;8.478;2022-09-27T10:28:33;9.20;99.90
8527;DHT22;4301;48.362;8.478;2022-09-27T10:31:03;9.10;99.90
8527;DHT22;4301;48.362;8.478;2022-09-27T10:33:34;9.20;99.90
8527;DHT22;4301;48.362;8.478;2022-09-27T10:36:22;9.20;99.90
8527;DHT22;4301;48.362;8.478;2022-09-27T10:38:52;9.50;99.90
8527;DHT22;4301;48.362;8.478;2022-09-27T10:41:23;9.70;99.90
8527;DHT22;4301;48.362;8.478;2022-09-27T10:43:52;9.70;99.90
8527;DHT22;4301;48.362;8.478;2022-09-27T10:46:24;9.50;99.90
8527;DHT22;4301;48.362;8.478;2022-09-27T10:49:08;9.40;99.90
8527;DHT22;4301;48.362;8.478;2022-09-27T10:51:37;9.40;99.90
8527;DHT22;4301;48.362;8.478;2022-09-27T10:54:14;9.40;99.90
8527;DHT22;4301;48.362;8.478;2022-09-27T10:56:42;9.40;99.90
8527;DHT22;4301;48.362;8.478;2022-09-27T10:59:17;9.40;99.90
8527;DHT22;4301;48.362;8.478;2022-09-27T11:01:45;9.40;99.90
8527;DHT22;4301;48.362;8.478;2022-09-27T11:04:29;9.30;99.90
8527;DHT22;4301;48.362;8.478;2022-09-27T11:07:16;9.40;99.90
8527;DHT22;4301;48.362;8.478;2022-09-27T11:09:47;9.50;99.90
8527;DHT22;4301;48.362;8.478;2022-09-27T11:12:16;9.60;99.90
8527;DHT22;4301;48.362;8.478;2022-09-27T11:14:52;9.50;99.90
8527;DHT22;4301;48.362;8.478;2022-09-27T11:17:26;9.20;99.90
8527;DHT22;4301;48.362;8.478;2022-09-27T11:20:14;9.40;99.90
8527;DHT22;4301;48.362;8.478;2022-09-27T11:23:10;9.40;99.90
8527;DHT22;4301;48.362;8.478;2022-09-27T11:25:45;9.30;99.90
8527;DHT22;4301;48.362;8.478;2022-09-27T11:28:24;9.20;99.90
8527;DHT22;4301;48.362;8.478;2022-09-27T11:31:00;9.10;99.90
8527;DHT22;4301;48.362;8.478;2022-09-27T11:33:41;9.10;99.90
8527;DHT22;4301;48.362;8.478;2022-09-27T11:36:20;8.90;99.90
8527;DHT22;4301;48.362;8.478;2022-09-27T11:38:59;8.70;99.90
8527;DHT22;4301;48.362;8.478;2022-09-27T11:41:49;8.80;99.90
8527;DHT22;4301;48.362;8.478;2022-09-27T11:44:35;8.70;99.90
8527;DHT22;4301;48.362;8.478;2022-09-27T11:47:13;8.60;99.90
8527;DHT22;4301;48.362;8.478;2022-09-27T11:50:09;8.40;99.90
8527;DHT22;4301;48.362;8.478;2022-09-27T11:52:52;8.40;99.90
8527;DHT22;4301;48.362;8.478;2022-09-27T11:55:33;8.20;99.90
8527;DHT22;4301;48.362;8.478;2022-09-27T11:58:07;8.20;99.90
8527;DHT22;4301;48.362;8.478;2022-09-27T12:00:45;8.20;99.90
8527;DHT22;4301;48.362;8.478;2022-09-27T12:03:40;8.20;99.90
8527;DHT22;4301;48.362;8.478;2022-09-27T12:06:14;8.20;99.90
8527;DHT22;4301;48.362;8.478;2022-09-27T12:08:56;8.30;99.90
8527;DHT22;4301;48.362;8.478;2022-09-27T12:11:30;8.40;99.90
8527;DHT22;4301;48.362;8.478;2022-09-27T12:14:03;8.50;99.90
8527;DHT22;4301;48.362;8.478;2022-09-27T12:16:33;8.70;99.90
8527;DHT22;4301;48.362;8.478;2022-09-27T12:19:02;8.80;99.90
8527;DHT22;4301;48.362;8.478;2022-09-27T12:21:30;8.60;99.90
8527;DHT22;4301;48.362;8.478;2022-09-27T12:24:01;8.80;99.90
8527;DHT22;4301;48.362;8.478;2022-09-27T12:26:33;8.80;99.90
8527;DHT22;4301;48.362;8.478;2022-09-27T12:29:05;8.70;99.90
8527;DHT22;4301;48.362;8.478;2022-09-27T12:31:41;8.60;99.90
8527;DHT22;4301;48.362;8.478;2022-09-27T12:34:14;8.40;99.90
8527;DHT22;4301;48.362;8.478;2022-09-27T12:36:46;8.30;99.90
8527;DHT22;4301;48.362;8.478;2022-09-27T12:39:19;8.10;99.90
8527;DHT22;4301;48.362;8.478;2022-09-27T12:41:52;7.90;99.90
8527;DHT22;4301;48.362;8.478;2022-09-27T12:44:27;8.00;99.90
8527;DHT22;4301;48.362;8.478;2022-09-27T12:47:02;7.90;99.90
8527;DHT22;4301;48.362;8.478;2022-09-27T12:49:40;7.90;99.90
8527;DHT22;4301;48.362;8.478;2022-09-27T12:52:13;8.10;99.90
8527;DHT22;4301;48.362;8.478;2022-09-27T12:55:15;8.80;99.90
8527;DHT22;4301;48.362;8.478;2022-09-27T12:57:55;9.30;99.90
8527;DHT22;4301;48.362;8.478;2022-09-27T13:00:26;9.30;99.90
8527;DHT22;4301;48.362;8.478;2022-09-27T13:03:32;9.60;99.90
8527;DHT22;4301;48.362;8.478;2022-09-27T13:06:31;10.90;99.90
8527;DHT22;4301;48.362;8.478;2022-09-27T13:12:02;12.80;99.90
8527;DHT22;4301;48.362;8.478;2022-09-27T13:14:41;12.60;99.90
8527;DHT22;4301;48.362;8.478;2022-09-27T13:26:46;14.80;99.90
8527;DHT22;4301;48.362;8.478;2022-09-27T13:29:32;14.10;99.90
8527;DHT22;4301;48.362;8.478;2022-09-27T13:32:16;12.60;99.90
8527;DHT22;4301;48.362;8.478;2022-09-27T13:34:45;11.60;99.90
8527;DHT22;4301;48.362;8.478;2022-09-27T13:37:41;11.00;99.90
8527;DHT22;4301;48.362;8.478;2022-09-27T13:40:30;10.30;99.90
8527;DHT22;4301;48.362;8.478;2022-09-27T13:46:14;9.90;99.90
8527;DHT22;4301;48.362;8.478;2022-09-27T13:48:46;9.50;99.90
8527;DHT22;4301;48.362;8.478;2022-09-27T13:51:34;9.30;99.90
8527;DHT22;4301;48.362;8.478;2022-09-27T13:54:04;9.20;99.90
8527;DHT22;4301;48.362;8.478;2022-09-27T13:56:50;9.00;99.90
8527;DHT22;4301;48.362;8.478;2022-09-27T13:59:22;8.90;99.90
8527;DHT22;4301;48.362;8.478;2022-09-27T14:01:53;8.60;99.90
8527;DHT22;4301;48.362;8.478;2022-09-27T14:04:25;8.40;99.90
8527;DHT22;4301;48.362;8.478;2022-09-27T14:06:55;8.30;99.90
8527;DHT22;4301;48.362;8.478;2022-09-27T14:09:28;8.20;99.90
8527;DHT22;4301;48.362;8.478;2022-09-27T14:11:58;8.00;99.90
8527;DHT22;4301;48.362;8.478;2022-09-27T14:14:28;7.80;99.90
8527;DHT22;4301;48.362;8.478;2022-09-27T14:17:00;7.80;99.90
8527;DHT22;4301;48.362;8.478;2022-09-27T14:19:27;7.70;99.90
8527;DHT22;4301;48.362;8.478;2022-09-27T14:21:56;7.70;99.90
8527;DHT22;4301;48.362;8.478;2022-09-27T14:24:42;7.60;99.90
8527;DHT22;4301;48.362;8.478;2022-09-27T14:27:12;7.50;99.90
8527;DHT22;4301;48.362;8.478;2022-09-27T14:29:43;7.50;99.90
8527;DHT22;4301;48.362;8.478;2022-09-27T14:32:14;7.50;99.90
8527;DHT22;4301;48.362;8.478;2022-09-27T14:34:42;7.80;99.90
8527;DHT22;4301;48.362;8.478;2022-09-27T14:37:19;8.00;99.90
8527;DHT22;4301;48.362;8.478;2022-09-27T14:39:56;9.90;99.90
8527;DHT22;4301;48.362;8.478;2022-09-27T14:42:25;11.20;99.90
8527;DHT22;4301;48.362;8.478;2022-09-27T14:44:56;12.40;99.90
8527;DHT22;4301;48.362;8.478;2022-09-27T14:47:27;13.40;99.90
8527;DHT22;4301;48.362;8.478;2022-09-27T14:49:56;13.50;99.90
8527;DHT22;4301;48.362;8.478;2022-09-27T14:52:26;13.90;99.90
8527;DHT22;4301;48.362;8.478;2022-09-27T14:54:59;13.70;99.90
8527;DHT22;4301;48.362;8.478;2022-09-27T14:57:28;13.80;99.90
8527;DHT22;4301;48.362;8.478;2022-09-27T14:59:58;12.50;99.90
8527;DHT22;4301;48.362;8.478;2022-09-27T15:02:29;11.20;99.90
8527;DHT22;4301;48.362;8.478;2022-09-27T15:04:58;10.10;99.90
8527;DHT22;4301;48.362;8.478;2022-09-27T15:07:26;9.60;99.90
8527;DHT22;4301;48.362;8.478;2022-09-27T15:09:53;9.10;99.90
8527;DHT22;4301;48.362;8.478;2022-09-27T15:12:24;9.00;99.90
8527;DHT22;4301;48.362;8.478;2022-09-27T15:14:53;8.90;99.90
8527;DHT22;4301;48.362;8.478;2022-09-27T15:17:24;8.70;99.90
8527;DHT22;4301;48.362;8.478;2022-09-27T15:20:01;8.60;99.90
8527;DHT22;4301;48.362;8.478;2022-09-27T15:22:35;8.40;99.90
8527;DHT22;4301;48.362;8.478;2022-09-27T15:25:06;8.30;99.90
8527;DHT22;4301;48.362;8.478;2022-09-27T15:27:34;8.40;99.90
8527;DHT22;4301;48.362;8.478;2022-09-27T15:30:01;8.40;99.90
8527;DHT22;4301;48.362;8.478;2022-09-27T15:32:28;8.30;99.90
8527;DHT22;4301;48.362;8.478;2022-09-27T15:34:56;8.10;99.90
8527;DHT22;4301;48.362;8.478;2022-09-27T15:37:35;8.20;99.90
8527;DHT22;4301;48.362;8.478;2022-09-27T15:43:25;8.20;99.90
8527;DHT22;4301;48.362;8.478;2022-09-27T15:45:56;8.30;99.90
8527;DHT22;4301;48.362;8.478;2022-09-27T15:48:25;8.50;99.90
8527;DHT22;4301;48.362;8.478;2022-09-27T15:50:53;8.50;99.90
8527;DHT22;4301;48.362;8.478;2022-09-27T15:53:43;8.30;99.90
8527;DHT22;4301;48.362;8.478;2022-09-27T15:56:13;8.40;99.90
8527;DHT22;4301;48.362;8.478;2022-09-27T15:58:41;8.40;99.90
8527;DHT22;4301;48.362;8.478;2022-09-27T16:01:18;8.20;99.90
8527;DHT22;4301;48.362;8.478;2022-09-27T16:03:47;8.30;99.90
8527;DHT22;4301;48.362;8.478;2022-09-27T16:06:14;8.40;99.90
8527;DHT22;4301;48.362;8.478;2022-09-27T16:08:44;8.40;99.90
8527;DHT22;4301;48.362;8.478;2022-09-27T16:11:14;8.20;99.90
8527;DHT22;4301;48.362;8.478;2022-09-27T16:13:42;8.20;99.90
8527;DHT22;4301;48.362;8.478;2022-09-27T16:16:14;8.20;99.90
8527;DHT22;4301;48.362;8.478;2022-09-27T16:18:42;8.10;99.90
8527;DHT22;4301;48.362;8.478;2022-09-27T16:21:10;8.10;99.90
8527;DHT22;4301;48.362;8.478;2022-09-27T16:23:37;8.00;99.90
8527;DHT22;4301;48.362;8.478;2022-09-27T16:26:05;8.00;99.90
8527;DHT22;4301;48.362;8.478;2022-09-27T16:28:33;7.90;99.90
8527;DHT22;4301;48.362;8.478;2022-09-27T16:31:04;8.00;99.90
8527;DHT22;4301;48.362;8.478;2022-09-27T16:33:32;7.90;99.90
8527;DHT22;4301;48.362;8.478;2022-09-27T16:36:05;7.90;99.90
8527;DHT22;4301;48.362;8.478;2022-09-27T16:38:33;7.80;99.90
8527;DHT22;4301;48.362;8.478;2022-09-27T16:41:00;7.80;99.90
8527;DHT22;4301;48.362;8.478;2022-09-27T16:43:29;7.80;99.90
8527;DHT22;4301;48.362;8.478;2022-09-27T16:46:06;7.80;99.90
8527;DHT22;4301;48.362;8.478;2022-09-27T16:48:36;7.70;99.90
8527;DHT22;4301;48.362;8.478;2022-09-27T16:51:05;7.80;99.90
8527;DHT22;4301;48.362;8.478;2022-09-27T16:53:49;7.80;99.90
8527;DHT22;4301;48.362;8.478;2022-09-27T16:56:17;7.80;99.90
8527;DHT22;4301;48.362;8.478;2022-09-27T16:58:46;7.80;99.90
8527;DHT22;4301;48.362;8.478;2022-09-27T17:01:14;7.80;99.90
8527;DHT22;4301;48.362;8.478;2022-09-27T17:03:42;7.70;99.90
8527;DHT22;4301;48.362;8.478;2022-09-27T17:06:10;7.80;99.90
8527;DHT22;4301;48.362;8.478;2022-09-27T17:08:37;7.70;99.90